sensor_id;sensor_type;location;lat;lon;timestamp;P1;durP1;ratioP1;P2;durP2;ratioP2
5195;SDS011;2617;51.006;12.436;2022-07-29T00:00:47;4.40;;;1.37;;
5195;SDS011;2617;51.006;12.436;2022-07-29T00:05:50;4.00;;;1.73;;
5195;SDS011;2617;51.006;12.436;2022-07-29T00:10:52;19.60;;;2.67;;
5195;SDS011;2617;51.006;12.436;2022-07-29T00:15:55;33.97;;;3.83;;
5195;SDS011;2617;51.006;12.436;2022-07-29T00:20:57;17.67;;;2.12;;
5195;SDS011;2617;51.006;12.436;2022-07-29T00:26:00;25.13;;;2.70;;
5195;SDS011;2617;51.006;12.436;2022-07-29T00:31:02;2.70;;;1.30;;
5195;SDS011;2617;51.006;12.436;2022-07-29T00:36:04;2.47;;;1.30;;
5195;SDS011;2617;51.006;12.436;2022-07-29T00:41:07;2.70;;;1.30;;
5195;SDS011;2617;51.006;12.436;2022-07-29T00:46:10;5.12;;;1.70;;
5195;SDS011;2617;51.006;12.436;2022-07-29T00:51:13;3.27;;;1.27;;
5195;SDS011;2617;51.006;12.436;2022-07-29T00:56:15;5.20;;;1.43;;
5195;SDS011;2617;51.006;12.436;2022-07-29T01:01:18;2.60;;;1.55;;
5195;SDS011;2617;51.006;12.436;2022-07-29T01:06:20;2.63;;;1.30;;
5195;SDS011;2617;51.006;12.436;2022-07-29T01:11:23;4.03;;;1.70;;
5195;SDS011;2617;51.006;12.436;2022-07-29T01:16:28;2.67;;;1.37;;
5195;SDS011;2617;51.006;12.436;2022-07-29T01:26:59;3.10;;;1.23;;
5195;SDS011;2617;51.006;12.436;2022-07-29T01:32:29;1.83;;;1.02;;
5195;SDS011;2617;51.006;12.436;2022-07-29T01:37:36;2.93;;;1.30;;
5195;SDS011;2617;51.006;12.436;2022-07-29T01:42:51;3.10;;;1.90;;
5195;SDS011;2617;51.006;12.436;2022-07-29T01:53:23;3.40;;;1.50;;
5195;SDS011;2617;51.006;12.436;2022-07-29T01:58:24;3.33;;;1.33;;
5195;SDS011;2617;51.006;12.436;2022-07-29T02:03:27;3.23;;;1.50;;
5195;SDS011;2617;51.006;12.436;2022-07-29T02:08:30;3.30;;;1.73;;
5195;SDS011;2617;51.006;12.436;2022-07-29T02:13:34;3.17;;;2.03;;
5195;SDS011;2617;51.006;12.436;2022-07-29T02:18:36;5.60;;;2.03;;
5195;SDS011;2617;51.006;12.436;2022-07-29T02:23:38;7.00;;;1.50;;
5195;SDS011;2617;51.006;12.436;2022-07-29T02:28:42;2.00;;;1.37;;
5195;SDS011;2617;51.006;12.436;2022-07-29T02:33:45;3.23;;;1.57;;
5195;SDS011;2617;51.006;12.436;2022-07-29T02:38:47;4.87;;;1.53;;
5195;SDS011;2617;51.006;12.436;2022-07-29T02:43:55;4.63;;;1.67;;
5195;SDS011;2617;51.006;12.436;2022-07-29T02:48:58;4.40;;;1.80;;
5195;SDS011;2617;51.006;12.436;2022-07-29T02:59:39;2.17;;;1.23;;
5195;SDS011;2617;51.006;12.436;2022-07-29T03:04:41;5.15;;;1.35;;
5195;SDS011;2617;51.006;12.436;2022-07-29T03:09:44;4.90;;;1.63;;
5195;SDS011;2617;51.006;12.436;2022-07-29T03:14:47;6.93;;;1.93;;
5195;SDS011;2617;51.006;12.436;2022-07-29T03:19:50;2.87;;;2.33;;
5195;SDS011;2617;51.006;12.436;2022-07-29T03:24:54;5.80;;;1.90;;
5195;SDS011;2617;51.006;12.436;2022-07-29T03:29:56;6.10;;;1.90;;
5195;SDS011;2617;51.006;12.436;2022-07-29T03:34:58;8.43;;;1.90;;
5195;SDS011;2617;51.006;12.436;2022-07-29T03:40:01;8.03;;;1.63;;
5195;SDS011;2617;51.006;12.436;2022-07-29T03:45:05;9.37;;;2.10;;
5195;SDS011;2617;51.006;12.436;2022-07-29T03:50:08;3.73;;;1.60;;
5195;SDS011;2617;51.006;12.436;2022-07-29T03:55:12;1.96;;;1.54;;
5195;SDS011;2617;51.006;12.436;2022-07-29T04:00:15;4.13;;;1.70;;
5195;SDS011;2617;51.006;12.436;2022-07-29T04:05:17;5.00;;;1.80;;
5195;SDS011;2617;51.006;12.436;2022-07-29T04:10:20;4.30;;;1.77;;
5195;SDS011;2617;51.006;12.436;2022-07-29T04:15:22;1.80;;;1.50;;
5195;SDS011;2617;51.006;12.436;2022-07-29T04:20:25;2.60;;;1.60;;
5195;SDS011;2617;51.006;12.436;2022-07-29T04:25:29;4.57;;;1.80;;
5195;SDS011;2617;51.006;12.436;2022-07-29T04:30:31;8.83;;;1.90;;
5195;SDS011;2617;51.006;12.436;2022-07-29T04:35:35;2.67;;;1.70;;
5195;SDS011;2617;51.006;12.436;2022-07-29T04:40:37;2.70;;;1.60;;
5195;SDS011;2617;51.006;12.436;2022-07-29T04:45:39;2.27;;;1.83;;
5195;SDS011;2617;51.006;12.436;2022-07-29T04:50:43;4.12;;;1.50;;
5195;SDS011;2617;51.006;12.436;2022-07-29T04:55:46;6.87;;;1.90;;
5195;SDS011;2617;51.006;12.436;2022-07-29T05:00:49;2.27;;;1.53;;
5195;SDS011;2617;51.006;12.436;2022-07-29T05:05:52;4.53;;;1.80;;
5195;SDS011;2617;51.006;12.436;2022-07-29T05:10:54;2.83;;;1.23;;
5195;SDS011;2617;51.006;12.436;2022-07-29T05:15:57;3.90;;;1.63;;
5195;SDS011;2617;51.006;12.436;2022-07-29T05:20:59;7.35;;;2.15;;
5195;SDS011;2617;51.006;12.436;2022-07-29T05:26:01;10.27;;;1.97;;
5195;SDS011;2617;51.006;12.436;2022-07-29T05:31:05;8.53;;;2.13;;
5195;SDS011;2617;51.006;12.436;2022-07-29T05:36:08;7.47;;;2.20;;
5195;SDS011;2617;51.006;12.436;2022-07-29T05:41:11;6.83;;;2.60;;
5195;SDS011;2617;51.006;12.436;2022-07-29T05:46:14;6.10;;;1.97;;
5195;SDS011;2617;51.006;12.436;2022-07-29T05:51:16;2.60;;;1.90;;
5195;SDS011;2617;51.006;12.436;2022-07-29T05:56:18;6.78;;;2.60;;
5195;SDS011;2617;51.006;12.436;2022-07-29T06:01:21;7.03;;;2.37;;
5195;SDS011;2617;51.006;12.436;2022-07-29T06:06:25;6.68;;;2.00;;
5195;SDS011;2617;51.006;12.436;2022-07-29T06:11:27;3.80;;;2.17;;
5195;SDS011;2617;51.006;12.436;2022-07-29T06:16:29;2.67;;;2.47;;
5195;SDS011;2617;51.006;12.436;2022-07-29T06:21:32;3.87;;;2.37;;
5195;SDS011;2617;51.006;12.436;2022-07-29T06:26:34;9.50;;;2.60;;
5195;SDS011;2617;51.006;12.436;2022-07-29T06:31:37;4.90;;;2.60;;
5195;SDS011;2617;51.006;12.436;2022-07-29T06:36:39;5.13;;;2.70;;
5195;SDS011;2617;51.006;12.436;2022-07-29T06:41:42;6.93;;;3.40;;
5195;SDS011;2617;51.006;12.436;2022-07-29T06:46:44;5.00;;;3.23;;
5195;SDS011;2617;51.006;12.436;2022-07-29T06:51:47;9.90;;;4.30;;
5195;SDS011;2617;51.006;12.436;2022-07-29T06:56:50;6.97;;;4.53;;
5195;SDS011;2617;51.006;12.436;2022-07-29T07:01:53;11.70;;;4.30;;
5195;SDS011;2617;51.006;12.436;2022-07-29T07:06:56;8.77;;;4.73;;
5195;SDS011;2617;51.006;12.436;2022-07-29T07:11:58;9.37;;;4.47;;
5195;SDS011;2617;51.006;12.436;2022-07-29T07:17:00;6.10;;;3.80;;
5195;SDS011;2617;51.006;12.436;2022-07-29T07:22:03;8.50;;;4.20;;
5195;SDS011;2617;51.006;12.436;2022-07-29T07:27:06;14.30;;;4.40;;
5195;SDS011;2617;51.006;12.436;2022-07-29T07:32:09;16.35;;;3.85;;
5195;SDS011;2617;51.006;12.436;2022-07-29T07:37:11;5.93;;;3.60;;
5195;SDS011;2617;51.006;12.436;2022-07-29T07:42:15;12.48;;;3.58;;
5195;SDS011;2617;51.006;12.436;2022-07-29T07:47:18;11.07;;;3.53;;
5195;SDS011;2617;51.006;12.436;2022-07-29T07:52:21;11.00;;;3.70;;
5195;SDS011;2617;51.006;12.436;2022-07-29T07:57:24;17.73;;;4.68;;
5195;SDS011;2617;51.006;12.436;2022-07-29T08:02:26;7.37;;;3.67;;
5195;SDS011;2617;51.006;12.436;2022-07-29T08:07:29;11.03;;;4.20;;
5195;SDS011;2617;51.006;12.436;2022-07-29T08:12:31;11.10;;;4.10;;
5195;SDS011;2617;51.006;12.436;2022-07-29T08:17:34;13.43;;;4.47;;
5195;SDS011;2617;51.006;12.436;2022-07-29T08:22:37;6.00;;;4.53;;
5195;SDS011;2617;51.006;12.436;2022-07-29T08:27:39;10.83;;;4.97;;
5195;SDS011;2617;51.006;12.436;2022-07-29T08:32:41;5.03;;;4.20;;
5195;SDS011;2617;51.006;12.436;2022-07-29T08:37:44;16.73;;;4.97;;
5195;SDS011;2617;51.006;12.436;2022-07-29T08:42:47;11.80;;;4.37;;
5195;SDS011;2617;51.006;12.436;2022-07-29T08:47:49;19.83;;;4.43;;
5195;SDS011;2617;51.006;12.436;2022-07-29T08:52:52;10.47;;;5.07;;
5195;SDS011;2617;51.006;12.436;2022-07-29T08:57:54;12.37;;;4.62;;
5195;SDS011;2617;51.006;12.436;2022-07-29T09:02:57;10.00;;;4.63;;
5195;SDS011;2617;51.006;12.436;2022-07-29T09:07:59;9.07;;;4.53;;
5195;SDS011;2617;51.006;12.436;2022-07-29T09:13:02;10.07;;;4.80;;
5195;SDS011;2617;51.006;12.436;2022-07-29T09:18:04;5.60;;;4.07;;
5195;SDS011;2617;51.006;12.436;2022-07-29T09:23:07;6.43;;;4.80;;
5195;SDS011;2617;51.006;12.436;2022-07-29T09:28:10;12.33;;;6.20;;
5195;SDS011;2617;51.006;12.436;2022-07-29T09:33:13;11.27;;;5.20;;
5195;SDS011;2617;51.006;12.436;2022-07-29T09:38:17;12.52;;;6.58;;
5195;SDS011;2617;51.006;12.436;2022-07-29T09:43:19;9.50;;;6.23;;
5195;SDS011;2617;51.006;12.436;2022-07-29T09:48:23;11.80;;;7.30;;
5195;SDS011;2617;51.006;12.436;2022-07-29T09:53:32;9.40;;;6.77;;
5195;SDS011;2617;51.006;12.436;2022-07-29T09:58:33;10.03;;;7.70;;
5195;SDS011;2617;51.006;12.436;2022-07-29T10:03:50;12.13;;;7.30;;
5195;SDS011;2617;51.006;12.436;2022-07-29T10:08:51;10.13;;;7.75;;
5195;SDS011;2617;51.006;12.436;2022-07-29T10:13:54;9.20;;;6.83;;
5195;SDS011;2617;51.006;12.436;2022-07-29T10:18:56;13.43;;;7.60;;
5195;SDS011;2617;51.006;12.436;2022-07-29T10:23:59;18.83;;;8.13;;
5195;SDS011;2617;51.006;12.436;2022-07-29T10:29:01;12.40;;;6.60;;
5195;SDS011;2617;51.006;12.436;2022-07-29T10:44:48;9.25;;;6.28;;
5195;SDS011;2617;51.006;12.436;2022-07-29T10:49:57;11.20;;;7.30;;
5195;SDS011;2617;51.006;12.436;2022-07-29T10:55:06;14.00;;;6.50;;
5195;SDS011;2617;51.006;12.436;2022-07-29T11:05:28;8.52;;;6.45;;
5195;SDS011;2617;51.006;12.436;2022-07-29T11:10:31;17.55;;;6.32;;
5195;SDS011;2617;51.006;12.436;2022-07-29T11:20:54;12.75;;;5.78;;
5195;SDS011;2617;51.006;12.436;2022-07-29T11:31:34;6.85;;;4.90;;
5195;SDS011;2617;51.006;12.436;2022-07-29T11:36:39;11.53;;;5.90;;
5195;SDS011;2617;51.006;12.436;2022-07-29T11:41:40;7.10;;;4.30;;
5195;SDS011;2617;51.006;12.436;2022-07-29T11:46:44;7.67;;;4.20;;
5195;SDS011;2617;51.006;12.436;2022-07-29T11:51:52;5.20;;;4.47;;
5195;SDS011;2617;51.006;12.436;2022-07-29T11:56:54;5.80;;;3.72;;
5195;SDS011;2617;51.006;12.436;2022-07-29T12:01:58;7.43;;;3.50;;
5195;SDS011;2617;51.006;12.436;2022-07-29T12:07:00;4.50;;;3.57;;
5195;SDS011;2617;51.006;12.436;2022-07-29T12:12:03;4.60;;;3.30;;
5195;SDS011;2617;51.006;12.436;2022-07-29T12:17:06;3.42;;;3.12;;
5195;SDS011;2617;51.006;12.436;2022-07-29T12:22:09;5.50;;;3.43;;
5195;SDS011;2617;51.006;12.436;2022-07-29T12:27:11;4.10;;;3.60;;
5195;SDS011;2617;51.006;12.436;2022-07-29T12:32:14;6.80;;;3.20;;
5195;SDS011;2617;51.006;12.436;2022-07-29T12:37:16;4.93;;;3.97;;
5195;SDS011;2617;51.006;12.436;2022-07-29T12:42:19;5.87;;;3.37;;
5195;SDS011;2617;51.006;12.436;2022-07-29T12:47:22;6.70;;;3.00;;
5195;SDS011;2617;51.006;12.436;2022-07-29T12:52:25;9.27;;;3.87;;
5195;SDS011;2617;51.006;12.436;2022-07-29T12:57:29;8.80;;;3.58;;
5195;SDS011;2617;51.006;12.436;2022-07-29T13:02:31;4.68;;;3.37;;
5195;SDS011;2617;51.006;12.436;2022-07-29T13:07:34;4.30;;;2.85;;
5195;SDS011;2617;51.006;12.436;2022-07-29T13:12:38;3.23;;;2.93;;
5195;SDS011;2617;51.006;12.436;2022-07-29T13:17:41;5.00;;;3.43;;
5195;SDS011;2617;51.006;12.436;2022-07-29T13:22:46;3.10;;;2.80;;
5195;SDS011;2617;51.006;12.436;2022-07-29T13:27:46;5.47;;;3.23;;
5195;SDS011;2617;51.006;12.436;2022-07-29T13:32:48;4.60;;;3.20;;
5195;SDS011;2617;51.006;12.436;2022-07-29T13:37:51;3.67;;;3.33;;
5195;SDS011;2617;51.006;12.436;2022-07-29T13:42:53;3.50;;;3.10;;
5195;SDS011;2617;51.006;12.436;2022-07-29T13:47:55;9.00;;;4.80;;
5195;SDS011;2617;51.006;12.436;2022-07-29T13:52:58;5.07;;;3.50;;
5195;SDS011;2617;51.006;12.436;2022-07-29T13:58:00;4.57;;;3.17;;
5195;SDS011;2617;51.006;12.436;2022-07-29T14:03:03;2.87;;;2.67;;
5195;SDS011;2617;51.006;12.436;2022-07-29T14:08:06;9.65;;;3.60;;
5195;SDS011;2617;51.006;12.436;2022-07-29T14:13:09;5.17;;;3.70;;
5195;SDS011;2617;51.006;12.436;2022-07-29T14:18:11;5.57;;;3.23;;
5195;SDS011;2617;51.006;12.436;2022-07-29T14:23:14;4.40;;;2.87;;
5195;SDS011;2617;51.006;12.436;2022-07-29T14:28:17;5.03;;;3.30;;
5195;SDS011;2617;51.006;12.436;2022-07-29T14:33:21;3.62;;;2.97;;
5195;SDS011;2617;51.006;12.436;2022-07-29T14:38:23;3.43;;;3.13;;
5195;SDS011;2617;51.006;12.436;2022-07-29T14:43:26;5.35;;;2.80;;
5195;SDS011;2617;51.006;12.436;2022-07-29T14:48:28;3.45;;;2.65;;
5195;SDS011;2617;51.006;12.436;2022-07-29T14:53:31;3.25;;;2.72;;
5195;SDS011;2617;51.006;12.436;2022-07-29T14:58:33;3.37;;;3.07;;
5195;SDS011;2617;51.006;12.436;2022-07-29T15:03:36;4.18;;;3.10;;
5195;SDS011;2617;51.006;12.436;2022-07-29T15:08:39;5.07;;;3.80;;
5195;SDS011;2617;51.006;12.436;2022-07-29T15:13:41;6.90;;;4.97;;
5195;SDS011;2617;51.006;12.436;2022-07-29T15:18:44;15.57;;;5.67;;
5195;SDS011;2617;51.006;12.436;2022-07-29T15:23:46;11.10;;;6.33;;
5195;SDS011;2617;51.006;12.436;2022-07-29T15:28:48;10.30;;;7.03;;
5195;SDS011;2617;51.006;12.436;2022-07-29T15:33:51;12.70;;;6.20;;
5195;SDS011;2617;51.006;12.436;2022-07-29T15:38:54;10.50;;;6.60;;
5195;SDS011;2617;51.006;12.436;2022-07-29T15:43:57;9.80;;;6.07;;
5195;SDS011;2617;51.006;12.436;2022-07-29T15:49:00;8.30;;;5.57;;
5195;SDS011;2617;51.006;12.436;2022-07-29T15:54:02;6.23;;;5.63;;
5195;SDS011;2617;51.006;12.436;2022-07-29T15:59:05;10.40;;;6.25;;
5195;SDS011;2617;51.006;12.436;2022-07-29T16:04:08;6.17;;;5.30;;
5195;SDS011;2617;51.006;12.436;2022-07-29T16:09:10;5.90;;;4.37;;
5195;SDS011;2617;51.006;12.436;2022-07-29T16:14:13;7.47;;;3.87;;
5195;SDS011;2617;51.006;12.436;2022-07-29T16:19:15;5.40;;;3.50;;
5195;SDS011;2617;51.006;12.436;2022-07-29T16:24:18;5.33;;;3.97;;
5195;SDS011;2617;51.006;12.436;2022-07-29T16:29:20;4.13;;;3.83;;
5195;SDS011;2617;51.006;12.436;2022-07-29T16:34:22;4.33;;;3.93;;
5195;SDS011;2617;51.006;12.436;2022-07-29T16:39:26;7.73;;;4.70;;
5195;SDS011;2617;51.006;12.436;2022-07-29T16:44:28;6.90;;;4.73;;
5195;SDS011;2617;51.006;12.436;2022-07-29T16:49:30;5.83;;;4.50;;
5195;SDS011;2617;51.006;12.436;2022-07-29T16:54:33;4.67;;;4.20;;
5195;SDS011;2617;51.006;12.436;2022-07-29T16:59:35;5.27;;;4.80;;
5195;SDS011;2617;51.006;12.436;2022-07-29T17:04:38;9.98;;;4.45;;
5195;SDS011;2617;51.006;12.436;2022-07-29T17:09:40;5.83;;;4.73;;
5195;SDS011;2617;51.006;12.436;2022-07-29T17:14:43;6.10;;;3.70;;
5195;SDS011;2617;51.006;12.436;2022-07-29T17:19:45;4.73;;;3.30;;
5195;SDS011;2617;51.006;12.436;2022-07-29T17:24:47;4.00;;;3.50;;
5195;SDS011;2617;51.006;12.436;2022-07-29T17:29:50;3.50;;;3.20;;
5195;SDS011;2617;51.006;12.436;2022-07-29T17:34:53;4.28;;;3.90;;
5195;SDS011;2617;51.006;12.436;2022-07-29T17:39:55;3.53;;;3.23;;
5195;SDS011;2617;51.006;12.436;2022-07-29T17:44:58;7.30;;;3.75;;
5195;SDS011;2617;51.006;12.436;2022-07-29T17:50:00;3.53;;;3.30;;
5195;SDS011;2617;51.006;12.436;2022-07-29T17:55:03;5.23;;;4.00;;
5195;SDS011;2617;51.006;12.436;2022-07-29T18:00:07;3.87;;;3.50;;
5195;SDS011;2617;51.006;12.436;2022-07-29T18:05:11;4.17;;;3.80;;
5195;SDS011;2617;51.006;12.436;2022-07-29T18:10:13;5.60;;;3.93;;
5195;SDS011;2617;51.006;12.436;2022-07-29T18:15:16;6.07;;;4.80;;
5195;SDS011;2617;51.006;12.436;2022-07-29T18:20:18;4.37;;;3.97;;
5195;SDS011;2617;51.006;12.436;2022-07-29T18:25:21;8.73;;;4.70;;
5195;SDS011;2617;51.006;12.436;2022-07-29T18:30:24;6.07;;;3.63;;
5195;SDS011;2617;51.006;12.436;2022-07-29T18:35:26;3.27;;;3.00;;
5195;SDS011;2617;51.006;12.436;2022-07-29T18:40:29;3.95;;;3.30;;
5195;SDS011;2617;51.006;12.436;2022-07-29T18:45:31;4.40;;;3.80;;
5195;SDS011;2617;51.006;12.436;2022-07-29T18:50:34;4.80;;;3.37;;
5195;SDS011;2617;51.006;12.436;2022-07-29T18:55:36;4.87;;;3.13;;
5195;SDS011;2617;51.006;12.436;2022-07-29T19:00:39;5.50;;;3.80;;
5195;SDS011;2617;51.006;12.436;2022-07-29T19:05:41;7.37;;;4.20;;
5195;SDS011;2617;51.006;12.436;2022-07-29T19:10:44;4.00;;;3.60;;
5195;SDS011;2617;51.006;12.436;2022-07-29T19:15:46;4.20;;;3.40;;
5195;SDS011;2617;51.006;12.436;2022-07-29T19:20:48;4.73;;;4.33;;
5195;SDS011;2617;51.006;12.436;2022-07-29T19:25:52;5.53;;;4.60;;
5195;SDS011;2617;51.006;12.436;2022-07-29T19:30:55;4.40;;;4.00;;
5195;SDS011;2617;51.006;12.436;2022-07-29T19:35:57;4.47;;;4.07;;
5195;SDS011;2617;51.006;12.436;2022-07-29T19:40:59;5.32;;;4.18;;
5195;SDS011;2617;51.006;12.436;2022-07-29T19:46:03;4.67;;;4.23;;
5195;SDS011;2617;51.006;12.436;2022-07-29T19:51:05;5.10;;;4.60;;
5195;SDS011;2617;51.006;12.436;2022-07-29T19:56:08;5.30;;;4.90;;
5195;SDS011;2617;51.006;12.436;2022-07-29T20:01:10;6.00;;;5.50;;
5195;SDS011;2617;51.006;12.436;2022-07-29T20:06:14;5.67;;;5.17;;
5195;SDS011;2617;51.006;12.436;2022-07-29T20:11:16;5.87;;;5.27;;
5195;SDS011;2617;51.006;12.436;2022-07-29T20:16:18;6.00;;;5.33;;
5195;SDS011;2617;51.006;12.436;2022-07-29T20:21:21;6.30;;;5.73;;
5195;SDS011;2617;51.006;12.436;2022-07-29T20:26:25;6.63;;;5.93;;
5195;SDS011;2617;51.006;12.436;2022-07-29T20:31:27;6.83;;;5.20;;
5195;SDS011;2617;51.006;12.436;2022-07-29T20:36:30;6.90;;;5.22;;
5195;SDS011;2617;51.006;12.436;2022-07-29T20:41:32;7.33;;;5.50;;
5195;SDS011;2617;51.006;12.436;2022-07-29T20:46:35;6.20;;;5.60;;
5195;SDS011;2617;51.006;12.436;2022-07-29T20:51:37;5.10;;;4.60;;
5195;SDS011;2617;51.006;12.436;2022-07-29T20:56:39;5.47;;;4.97;;
5195;SDS011;2617;51.006;12.436;2022-07-29T21:01:42;6.40;;;5.00;;
5195;SDS011;2617;51.006;12.436;2022-07-29T21:06:44;5.57;;;5.03;;
5195;SDS011;2617;51.006;12.436;2022-07-29T21:11:47;6.10;;;3.80;;
5195;SDS011;2617;51.006;12.436;2022-07-29T21:16:50;6.37;;;4.37;;
5195;SDS011;2617;51.006;12.436;2022-07-29T21:21:52;9.10;;;3.93;;
5195;SDS011;2617;51.006;12.436;2022-07-29T21:26:55;3.80;;;3.50;;
5195;SDS011;2617;51.006;12.436;2022-07-29T21:32:12;4.90;;;3.27;;
5195;SDS011;2617;51.006;12.436;2022-07-29T21:37:15;7.30;;;3.87;;
5195;SDS011;2617;51.006;12.436;2022-07-29T21:42:17;4.97;;;4.33;;
5195;SDS011;2617;51.006;12.436;2022-07-29T21:47:20;4.50;;;4.10;;
5195;SDS011;2617;51.006;12.436;2022-07-29T21:52:23;6.50;;;3.77;;
5195;SDS011;2617;51.006;12.436;2022-07-29T21:57:25;4.03;;;3.73;;
5195;SDS011;2617;51.006;12.436;2022-07-29T22:02:29;8.57;;;4.07;;
5195;SDS011;2617;51.006;12.436;2022-07-29T22:07:31;4.22;;;3.40;;
5195;SDS011;2617;51.006;12.436;2022-07-29T22:12:33;4.80;;;4.10;;
5195;SDS011;2617;51.006;12.436;2022-07-29T22:17:36;8.23;;;4.10;;
5195;SDS011;2617;51.006;12.436;2022-07-29T22:22:38;4.47;;;4.03;;
5195;SDS011;2617;51.006;12.436;2022-07-29T22:27:41;5.17;;;4.13;;
5195;SDS011;2617;51.006;12.436;2022-07-29T22:32:44;6.00;;;3.90;;
5195;SDS011;2617;51.006;12.436;2022-07-29T22:37:46;5.13;;;4.40;;
5195;SDS011;2617;51.006;12.436;2022-07-29T22:42:50;4.73;;;4.30;;
5195;SDS011;2617;51.006;12.436;2022-07-29T22:47:52;4.33;;;4.00;;
5195;SDS011;2617;51.006;12.436;2022-07-29T22:52:54;4.83;;;4.37;;
5195;SDS011;2617;51.006;12.436;2022-07-29T22:57:58;7.03;;;4.03;;
5195;SDS011;2617;51.006;12.436;2022-07-29T23:03:00;5.80;;;5.30;;
5195;SDS011;2617;51.006;12.436;2022-07-29T23:08:02;5.60;;;4.72;;
5195;SDS011;2617;51.006;12.436;2022-07-29T23:13:05;5.07;;;4.23;;
5195;SDS011;2617;51.006;12.436;2022-07-29T23:18:08;5.80;;;5.30;;
5195;SDS011;2617;51.006;12.436;2022-07-29T23:23:11;6.53;;;4.87;;
5195;SDS011;2617;51.006;12.436;2022-07-29T23:28:14;5.20;;;4.80;;
5195;SDS011;2617;51.006;12.436;2022-07-29T23:33:16;7.10;;;4.93;;
5195;SDS011;2617;51.006;12.436;2022-07-29T23:38:19;7.70;;;5.33;;
5195;SDS011;2617;51.006;12.436;2022-07-29T23:43:21;6.47;;;4.80;;
5195;SDS011;2617;51.006;12.436;2022-07-29T23:48:23;5.40;;;4.20;;
5195;SDS011;2617;51.006;12.436;2022-07-29T23:53:26;5.17;;;4.67;;
5195;SDS011;2617;51.006;12.436;2022-07-29T23:58:28;6.50;;;4.60;;
